Time;durP1;ratioP1;P1;durP2;ratioP2;P2;SDS_P1;SDS_P2;PMS_P1;PMS_P2;Temp;Humidity;BMP_temperature;BMP_pressure;BME280_temperature;BME280_humidity;BME280_pressure;Samples;Min_cycle;Max_cycle;Signal;HPM_P1;HPM_P2
2022/07/21 00:00:32;;;;;;;9.60;4.85;;;23.00;63.90;;;;;;5036888;28;20425;-58
2022/07/21 00:02:58;;;;;;;5.35;3.85;;;23.00;63.90;;;;;;5045628;28;20037;-57
2022/07/21 00:05:25;;;;;;;6.90;4.22;;;22.90;63.70;;;;;;5047927;28;20029;-60
2022/07/21 00:07:52;;;;;;;8.02;4.45;;;22.90;64.00;;;;;;5046557;28;20111;-58
2022/07/21 00:10:19;;;;;;;7.05;4.72;;;22.90;64.00;;;;;;5044215;28;20056;-59
2022/07/21 00:12:45;;;;;;;7.00;4.15;;;22.90;64.00;;;;;;5043122;28;20030;-59
2022/07/21 00:15:12;;;;;;;8.75;4.43;;;22.90;64.00;;;;;;5047190;28;20030;-58
2022/07/21 00:17:37;;;;;;;8.05;4.88;;;22.90;64.10;;;;;;5044408;28;20029;-59
2022/07/21 00:20:06;;;;;;;6.40;4.28;;;22.90;64.10;;;;;;5046944;28;20036;-58
2022/07/21 00:22:32;;;;;;;6.35;4.30;;;22.80;64.40;;;;;;5051781;28;20060;-59
2022/07/21 00:24:58;;;;;;;7.20;4.22;;;22.80;64.30;;;;;;5044448;28;20045;-59
2022/07/21 00:27:24;;;;;;;6.50;4.30;;;22.70;64.30;;;;;;5051570;28;20036;-59
2022/07/21 00:29:50;;;;;;;8.70;4.45;;;22.70;64.40;;;;;;5033921;28;20045;-59
2022/07/21 00:32:16;;;;;;;7.28;4.63;;;22.70;64.60;;;;;;5046853;28;20029;-60
2022/07/21 00:34:42;;;;;;;5.50;4.35;;;22.60;64.70;;;;;;5042232;28;20068;-59
2022/07/21 00:37:08;;;;;;;6.82;4.68;;;22.50;64.80;;;;;;5063396;28;20051;-59
2022/07/21 00:39:34;;;;;;;5.82;4.25;;;22.40;65.10;;;;;;5042997;28;20049;-59
2022/07/21 00:42:00;;;;;;;8.07;4.68;;;22.40;65.10;;;;;;5060071;28;20085;-59
2022/07/21 00:44:27;;;;;;;8.98;4.53;;;22.40;65.30;;;;;;5048108;28;20034;-59
2022/07/21 00:46:54;;;;;;;5.80;4.28;;;22.30;65.50;;;;;;5036343;28;20025;-58
2022/07/21 00:49:20;;;;;;;7.65;4.78;;;22.30;65.50;;;;;;5041170;28;20479;-59
2022/07/21 00:51:47;;;;;;;5.30;4.32;;;22.30;65.60;;;;;;5048732;28;20022;-58
2022/07/21 00:54:16;;;;;;;7.57;4.95;;;22.20;65.70;;;;;;5042110;28;20029;-59
2022/07/21 00:56:42;;;;;;;6.30;4.78;;;22.20;66.20;;;;;;5043351;28;20025;-60
2022/07/21 00:59:08;;;;;;;12.70;5.47;;;22.20;66.00;;;;;;5046687;28;20076;-59
2022/07/21 01:01:33;;;;;;;8.77;5.32;;;22.20;66.10;;;;;;5055457;28;20026;-57
2022/07/21 01:04:00;;;;;;;7.10;5.40;;;22.20;66.30;;;;;;5042252;28;20036;-59
2022/07/21 01:06:26;;;;;;;7.75;5.53;;;22.20;66.20;;;;;;5060129;28;20033;-58
2022/07/21 01:08:53;;;;;;;10.40;5.85;;;22.20;66.50;;;;;;5031715;28;20133;-58
2022/07/21 01:11:20;;;;;;;6.85;5.07;;;22.20;66.20;;;;;;5053247;28;20040;-57
2022/07/21 01:13:47;;;;;;;7.95;5.55;;;22.20;66.10;;;;;;5060718;28;20021;-58
2022/07/21 01:16:12;;;;;;;9.07;5.47;;;22.10;66.20;;;;;;5064302;28;20030;-59
2022/07/21 01:18:39;;;;;;;10.13;5.82;;;22.10;66.20;;;;;;5035529;28;20060;-58
2022/07/21 01:21:17;;;;;;;8.45;5.50;;;22.00;66.50;;;;;;5068628;28;20025;-58
2022/07/21 01:23:42;;;;;;;9.02;5.70;;;22.00;66.80;;;;;;5042055;28;20065;-59
2022/07/21 01:26:08;;;;;;;8.00;5.47;;;22.00;66.70;;;;;;5039545;28;20025;-58
2022/07/21 01:28:34;;;;;;;7.05;5.57;;;22.00;66.80;;;;;;5046376;28;20068;-58
2022/07/21 01:30:59;;;;;;;8.75;5.65;;;22.00;67.10;;;;;;5052102;28;20030;-57
2022/07/21 01:33:25;;;;;;;8.40;5.30;;;22.00;67.30;;;;;;5046311;28;20040;-57
2022/07/21 01:35:50;;;;;;;6.57;5.22;;;22.10;67.40;;;;;;5043775;28;20041;-58
2022/07/21 01:43:44;;;;;;;9.40;5.35;;;22.10;66.60;;;;;;5044144;28;20049;-59
2022/07/21 01:46:12;;;;;;;9.43;5.85;;;22.10;66.70;;;;;;5063319;28;20041;-58
2022/07/21 01:48:42;;;;;;;9.55;5.57;;;22.00;66.70;;;;;;5044762;28;20037;-59
2022/07/21 01:51:08;;;;;;;8.52;5.25;;;22.00;66.90;;;;;;5042045;28;20025;-59
2022/07/21 01:53:34;;;;;;;8.93;5.75;;;22.10;66.80;;;;;;5043192;28;20102;-59
2022/07/21 01:55:59;;;;;;;8.43;5.80;;;22.10;67.20;;;;;;5059390;28;20044;-58
2022/07/21 01:58:25;;;;;;;8.88;5.78;;;22.00;67.30;;;;;;5048193;28;20021;-58
2022/07/21 02:00:51;;;;;;;8.05;5.72;;;22.10;67.40;;;;;;5054122;28;20033;-58
2022/07/21 02:03:16;;;;;;;8.07;5.72;;;22.10;67.50;;;;;;5045545;28;20033;-58
2022/07/21 02:05:42;;;;;;;6.95;5.53;;;22.10;67.60;;;;;;5047706;28;20068;-58
2022/07/21 02:08:07;;;;;;;9.80;6.38;;;22.00;67.40;;;;;;5052112;28;20051;-59
2022/07/21 02:10:33;;;;;;;8.73;6.05;;;22.10;67.50;;;;;;5053553;28;20097;-59
2022/07/21 02:12:59;;;;;;;7.47;6.05;;;22.00;67.40;;;;;;5044955;28;20026;-59
2022/07/21 02:15:24;;;;;;;8.20;6.43;;;22.00;67.60;;;;;;5042637;28;20117;-59
2022/07/21 02:17:50;;;;;;;7.55;6.20;;;22.00;67.80;;;;;;5056068;28;20041;-59
2022/07/21 02:20:16;;;;;;;10.85;6.57;;;22.00;67.70;;;;;;5033234;28;20044;-59
2022/07/21 02:22:45;;;;;;;7.85;6.55;;;22.00;67.90;;;;;;5046046;28;20035;-59
2022/07/21 02:25:10;;;;;;;10.07;6.57;;;22.00;68.00;;;;;;5035850;28;20128;-58
2022/07/21 02:27:36;;;;;;;9.30;6.20;;;22.00;68.00;;;;;;5059801;28;20084;-58
2022/07/21 02:30:03;;;;;;;9.35;6.03;;;22.00;67.90;;;;;;5040142;28;20029;-59
2022/07/21 02:32:30;;;;;;;7.45;6.22;;;22.00;67.70;;;;;;5050819;28;20096;-59
2022/07/21 02:34:56;;;;;;;7.35;5.68;;;22.00;67.60;;;;;;5047414;28;20044;-59
2022/07/21 02:37:22;;;;;;;9.70;5.70;;;22.00;67.70;;;;;;5050144;28;20034;-59
2022/07/21 02:39:48;;;;;;;8.20;6.75;;;22.00;67.60;;;;;;5051874;28;20038;-59
2022/07/21 02:42:14;;;;;;;11.45;7.63;;;22.00;67.70;;;;;;5059588;28;20059;-58
2022/07/21 02:44:40;;;;;;;10.13;7.82;;;22.00;68.10;;;;;;5047825;28;20034;-58
2022/07/21 02:47:05;;;;;;;10.07;7.93;;;21.90;68.00;;;;;;5047139;28;20483;-58
2022/07/21 02:49:31;;;;;;;13.40;8.05;;;21.90;67.80;;;;;;5061002;28;20041;-58
2022/07/21 02:51:57;;;;;;;11.43;8.02;;;21.90;68.10;;;;;;5055764;28;20660;-57
2022/07/21 02:54:22;;;;;;;9.52;7.78;;;21.90;68.10;;;;;;5048623;28;20089;-58
2022/07/21 02:56:48;;;;;;;10.98;7.75;;;21.90;68.30;;;;;;5053527;28;20618;-59
2022/07/21 02:59:14;;;;;;;12.68;7.57;;;21.90;68.30;;;;;;5059670;28;20033;-59
2022/07/21 03:01:40;;;;;;;11.55;7.72;;;21.90;68.00;;;;;;5034494;28;20112;-59
2022/07/21 03:04:05;;;;;;;10.60;7.57;;;21.90;68.10;;;;;;5047067;28;20034;-58
2022/07/21 03:06:31;;;;;;;11.65;7.93;;;21.90;68.20;;;;;;5035946;28;20057;-57
2022/07/21 03:08:57;;;;;;;10.10;7.60;;;21.90;68.40;;;;;;5044474;28;20048;-59
2022/07/21 03:11:23;;;;;;;15.35;7.97;;;21.90;68.50;;;;;;5051233;28;20085;-58
2022/07/21 03:13:49;;;;;;;10.95;7.82;;;21.90;68.60;;;;;;5046830;28;20025;-58
2022/07/21 03:16:14;;;;;;;10.65;7.55;;;22.00;68.70;;;;;;5052105;28;20068;-59
2022/07/21 03:18:41;;;;;;;11.10;7.45;;;22.00;68.80;;;;;;5034995;28;20044;-58
2022/07/21 03:21:07;;;;;;;10.48;7.68;;;22.00;68.70;;;;;;5046787;28;20030;-59
2022/07/21 03:23:33;;;;;;;13.05;7.80;;;22.00;68.60;;;;;;5044226;28;20029;-59
2022/07/21 03:25:58;;;;;;;10.65;8.13;;;22.00;68.70;;;;;;5060074;28;20025;-59
2022/07/21 03:28:24;;;;;;;8.65;7.75;;;22.10;68.80;;;;;;5034694;28;20045;-60
2022/07/21 03:30:50;;;;;;;11.32;7.75;;;22.10;68.80;;;;;;5049813;28;20484;-58
2022/07/21 03:33:16;;;;;;;12.88;8.13;;;22.10;68.60;;;;;;5039534;28;20050;-58
2022/07/21 03:35:42;;;;;;;8.45;7.32;;;22.10;68.70;;;;;;5031195;28;20029;-59
2022/07/21 03:38:08;;;;;;;11.55;7.50;;;22.10;68.60;;;;;;5039508;28;20045;-58
2022/07/21 03:40:36;;;;;;;11.02;7.55;;;22.10;68.50;;;;;;5043799;28;20030;-59
2022/07/21 03:43:04;;;;;;;9.68;7.82;;;22.10;68.80;;;;;;5039725;28;20037;-59
2022/07/21 03:45:32;;;;;;;10.65;8.43;;;22.10;68.80;;;;;;5065579;28;20088;-59
2022/07/21 03:47:59;;;;;;;12.40;8.43;;;22.10;68.80;;;;;;5035235;28;20036;-58
2022/07/21 03:50:27;;;;;;;11.13;8.57;;;22.20;69.10;;;;;;5051208;28;20029;-60
2022/07/21 03:52:53;;;;;;;12.02;8.68;;;22.10;69.00;;;;;;5057162;28;20018;-60
2022/07/21 03:55:19;;;;;;;10.93;9.15;;;22.10;68.90;;;;;;4992349;28;20026;-60
2022/07/21 03:57:51;;;;;;;16.92;9.13;;;22.20;69.00;;;;;;5043873;28;20243;-58
2022/07/21 04:00:37;;;;;;;14.18;8.48;;;22.10;69.10;;;;;;5049203;28;20022;-59
2022/07/21 04:03:04;;;;;;;12.48;9.23;;;22.10;69.60;;;;;;5036724;28;20108;-57
2022/07/21 04:05:30;;;;;;;16.20;9.77;;;22.10;68.80;;;;;;5041943;28;20052;-58
2022/07/21 04:07:56;;;;;;;13.77;9.55;;;22.10;68.80;;;;;;5055694;28;20109;-58
2022/07/21 04:10:25;;;;;;;16.55;9.60;;;22.10;68.90;;;;;;5055692;28;20095;-58
2022/07/21 04:12:51;;;;;;;13.27;9.07;;;22.20;69.10;;;;;;5040950;28;20045;-58
2022/07/21 04:15:17;;;;;;;16.60;9.13;;;22.20;69.10;;;;;;5058877;28;20025;-58
2022/07/21 04:17:43;;;;;;;11.50;8.23;;;22.20;69.20;;;;;;5063520;28;20122;-59
2022/07/21 04:20:12;;;;;;;14.35;8.77;;;22.20;69.30;;;;;;5057416;28;20069;-58
2022/07/21 04:22:38;;;;;;;10.27;8.13;;;22.20;69.50;;;;;;5051156;28;20040;-59
2022/07/21 04:25:05;;;;;;;13.63;8.88;;;22.20;69.20;;;;;;5065072;28;20074;-58
2022/07/21 04:27:32;;;;;;;12.68;8.98;;;22.20;69.30;;;;;;5048416;28;20450;-58
2022/07/21 04:29:57;;;;;;;13.35;10.05;;;22.30;69.40;;;;;;5065669;28;20029;-59
2022/07/21 04:32:23;;;;;;;14.68;9.02;;;22.30;69.50;;;;;;5043785;28;20029;-59
2022/07/21 04:34:49;;;;;;;10.68;8.25;;;22.30;69.50;;;;;;5026179;28;20037;-58
2022/07/21 04:37:15;;;;;;;11.32;8.10;;;22.30;69.50;;;;;;5032723;28;20105;-59
2022/07/21 04:39:41;;;;;;;13.57;7.75;;;22.30;69.60;;;;;;5065859;28;20490;-59
2022/07/21 04:42:06;;;;;;;11.38;7.28;;;22.30;69.40;;;;;;5041828;28;20033;-58
2022/07/21 04:44:32;;;;;;;11.80;7.57;;;22.30;69.40;;;;;;5065105;28;20028;-59
2022/07/21 04:46:58;;;;;;;8.85;7.30;;;22.30;69.50;;;;;;5043964;28;20025;-58
2022/07/21 04:49:23;;;;;;;12.00;7.47;;;22.40;69.70;;;;;;5064170;28;20353;-59
2022/07/21 04:51:49;;;;;;;10.00;6.85;;;22.40;69.80;;;;;;5045101;28;20056;-58
2022/07/21 04:54:15;;;;;;;7.60;6.43;;;22.40;69.80;;;;;;5044930;28;20527;-59
2022/07/21 04:56:41;;;;;;;8.25;6.22;;;22.50;69.80;;;;;;5040485;28;20666;-57
2022/07/21 04:59:08;;;;;;;8.38;6.50;;;22.50;69.50;;;;;;5044306;28;20037;-58
2022/07/21 05:01:33;;;;;;;11.35;5.88;;;22.50;69.40;;;;;;5060842;28;20014;-57
2022/07/21 05:03:59;;;;;;;9.00;5.68;;;22.60;69.40;;;;;;5047601;28;20040;-57
2022/07/21 05:06:25;;;;;;;7.88;4.95;;;22.60;69.60;;;;;;5046936;28;20042;-58
2022/07/21 05:08:50;;;;;;;7.07;5.35;;;22.60;69.40;;;;;;5047750;28;20036;-58
2022/07/21 05:11:16;;;;;;;12.32;5.63;;;22.70;69.50;;;;;;5054019;28;20063;-59
2022/07/21 05:13:42;;;;;;;7.57;5.38;;;22.80;69.30;;;;;;5039935;28;20025;-58
2022/07/21 05:16:08;;;;;;;10.27;5.38;;;22.80;69.20;;;;;;5043054;28;20048;-59
2022/07/21 05:18:34;;;;;;;6.90;5.28;;;22.90;69.00;;;;;;5051680;28;20042;-59
2022/07/21 05:20:59;;;;;;;7.00;5.07;;;22.90;68.70;;;;;;5046961;28;20026;-57
2022/07/21 05:23:25;;;;;;;7.43;5.35;;;22.90;68.70;;;;;;5055584;28;20503;-57
2022/07/21 05:25:52;;;;;;;5.72;4.85;;;22.90;68.50;;;;;;5042846;28;20029;-59
2022/07/21 05:28:18;;;;;;;7.30;5.65;;;22.90;68.40;;;;;;5052143;28;20061;-58
2022/07/21 05:30:43;;;;;;;6.45;4.88;;;23.00;68.10;;;;;;5048991;28;20140;-59
2022/07/21 05:33:09;;;;;;;7.82;4.60;;;23.00;67.60;;;;;;5047480;28;20048;-59
2022/07/21 05:35:35;;;;;;;8.05;4.45;;;23.00;67.80;;;;;;5045635;28;20063;-58
2022/07/21 05:38:01;;;;;;;6.32;4.22;;;22.90;68.10;;;;;;5054278;28;20046;-59
2022/07/21 05:40:27;;;;;;;6.30;4.43;;;23.00;68.00;;;;;;5038290;28;20082;-58
2022/07/21 05:42:53;;;;;;;7.40;4.18;;;23.00;68.00;;;;;;5054951;28;20025;-57
2022/07/21 05:45:18;;;;;;;5.50;4.30;;;23.00;68.00;;;;;;5057102;28;20112;-58
2022/07/21 05:47:45;;;;;;;5.28;3.80;;;23.10;68.10;;;;;;5052606;28;20022;-58
2022/07/21 05:50:12;;;;;;;5.60;4.03;;;23.10;67.70;;;;;;5059510;28;20118;-59
2022/07/21 05:52:38;;;;;;;5.72;4.18;;;23.10;67.60;;;;;;5056292;28;20030;-58
2022/07/21 05:55:04;;;;;;;5.53;4.13;;;23.20;67.60;;;;;;5048401;28;20035;-58
2022/07/21 05:57:30;;;;;;;5.10;3.83;;;23.20;67.50;;;;;;5047118;28;20031;-59
2022/07/21 05:59:56;;;;;;;6.88;4.10;;;23.20;67.20;;;;;;5060458;28;20057;-58
2022/07/21 06:02:21;;;;;;;4.97;3.53;;;23.20;67.10;;;;;;5042124;28;20026;-58
2022/07/21 06:04:47;;;;;;;4.15;3.58;;;23.30;67.10;;;;;;5040611;28;20029;-58
2022/07/21 06:07:13;;;;;;;6.15;4.15;;;23.30;67.30;;;;;;5048529;28;20076;-59
2022/07/21 06:09:38;;;;;;;6.13;4.28;;;23.40;66.90;;;;;;5045979;28;20487;-58
2022/07/21 06:12:04;;;;;;;4.05;3.58;;;23.40;66.90;;;;;;5049474;28;20032;-58
2022/07/21 06:14:30;;;;;;;5.13;4.10;;;23.40;66.60;;;;;;5045835;28;20029;-59
2022/07/21 06:16:56;;;;;;;4.72;3.28;;;23.40;66.50;;;;;;5032660;28;20034;-58
2022/07/21 06:19:21;;;;;;;4.35;3.67;;;23.40;66.40;;;;;;5044373;28;20548;-58
2022/07/21 06:21:47;;;;;;;5.57;3.75;;;23.40;66.30;;;;;;5042428;28;20125;-59
2022/07/21 06:24:13;;;;;;;4.53;3.20;;;23.40;65.90;;;;;;5033383;28;20044;-59
2022/07/21 06:26:39;;;;;;;4.22;3.25;;;23.40;65.80;;;;;;5038875;28;20030;-59
2022/07/21 06:29:06;;;;;;;6.88;3.97;;;23.40;65.80;;;;;;5039665;28;20057;-59
2022/07/21 06:31:32;;;;;;;4.47;3.75;;;23.40;66.20;;;;;;5040973;28;20034;-59
2022/07/21 06:33:58;;;;;;;7.32;3.92;;;23.40;66.00;;;;;;5033706;28;20029;-59
2022/07/21 06:36:24;;;;;;;7.72;3.85;;;23.40;66.10;;;;;;5045735;28;20072;-58
2022/07/21 06:38:49;;;;;;;7.30;3.75;;;23.40;66.10;;;;;;5031586;28;20139;-58
2022/07/21 06:41:15;;;;;;;5.03;3.70;;;23.50;66.20;;;;;;5034206;28;20042;-59
2022/07/21 06:43:41;;;;;;;4.85;3.50;;;23.50;66.30;;;;;;5028986;28;20097;-57
2022/07/21 06:46:07;;;;;;;7.00;4.13;;;23.50;66.50;;;;;;5030916;28;20063;-58
2022/07/21 06:48:32;;;;;;;5.22;3.05;;;23.50;66.30;;;;;;5035320;28;20025;-58
2022/07/21 06:51:00;;;;;;;6.30;4.13;;;23.60;66.40;;;;;;5042659;28;20116;-58
2022/07/21 06:53:26;;;;;;;6.53;4.25;;;23.70;66.30;;;;;;5036970;28;20057;-59
2022/07/21 06:55:53;;;;;;;4.95;3.97;;;23.70;66.10;;;;;;5042721;28;20056;-58
2022/07/21 06:58:20;;;;;;;6.38;4.40;;;23.80;65.80;;;;;;5045915;28;20040;-58
2022/07/21 07:00:47;;;;;;;5.63;4.72;;;23.90;65.70;;;;;;5039958;28;20030;-58
2022/07/21 07:03:14;;;;;;;7.00;4.15;;;23.90;65.50;;;;;;5056893;28;20040;-58
2022/07/21 07:05:41;;;;;;;6.65;4.20;;;23.90;65.30;;;;;;5044556;28;20076;-58
2022/07/21 07:08:07;;;;;;;5.30;3.85;;;23.90;65.40;;;;;;5046443;28;20112;-58
2022/07/21 07:10:33;;;;;;;7.88;4.72;;;24.00;65.60;;;;;;5065611;28;20021;-59
2022/07/21 07:12:59;;;;;;;7.45;4.88;;;24.10;65.70;;;;;;5045123;28;20025;-59
2022/07/21 07:15:25;;;;;;;6.30;4.85;;;24.20;65.30;;;;;;5027001;28;20053;-59
2022/07/21 07:17:51;;;;;;;6.32;4.63;;;24.30;64.70;;;;;;5046021;28;20034;-58
2022/07/21 07:20:18;;;;;;;5.93;4.55;;;24.40;64.60;;;;;;5066086;28;20036;-58
2022/07/21 07:22:44;;;;;;;7.18;4.47;;;24.40;64.20;;;;;;5041766;28;20036;-58
2022/07/21 07:25:10;;;;;;;7.47;5.25;;;24.50;63.90;;;;;;5050104;28;20399;-58
2022/07/21 07:27:37;;;;;;;8.02;5.32;;;24.50;63.70;;;;;;5042014;28;20056;-59
2022/07/21 07:30:04;;;;;;;6.43;4.78;;;24.50;63.30;;;;;;5033757;28;20480;-59
2022/07/21 07:32:29;;;;;;;6.15;4.90;;;24.60;63.20;;;;;;5029323;28;20032;-59
2022/07/21 07:34:55;;;;;;;7.65;5.30;;;24.60;63.00;;;;;;5043423;28;20089;-59
2022/07/21 07:37:21;;;;;;;8.65;5.20;;;24.60;63.00;;;;;;5065361;28;20095;-59
2022/07/21 07:39:46;;;;;;;7.30;4.22;;;24.60;62.80;;;;;;5042798;28;20029;-59
2022/07/21 07:42:12;;;;;;;7.88;4.95;;;24.60;63.20;;;;;;5032781;28;20125;-59
2022/07/21 07:44:38;;;;;;;6.72;5.03;;;24.70;63.50;;;;;;5041555;28;20049;-58
2022/07/21 07:47:04;;;;;;;8.75;5.72;;;24.80;63.10;;;;;;5045089;28;20106;-58
2022/07/21 07:49:31;;;;;;;8.65;5.05;;;24.90;62.70;;;;;;5032691;28;20037;-60
2022/07/21 07:51:57;;;;;;;8.38;5.43;;;24.90;62.10;;;;;;5038885;28;20030;-58
2022/07/21 07:54:23;;;;;;;10.27;5.45;;;24.90;61.80;;;;;;5042918;28;20121;-59
2022/07/21 07:56:49;;;;;;;8.85;4.95;;;24.90;61.70;;;;;;5051667;28;20021;-59
2022/07/21 07:59:15;;;;;;;7.03;4.70;;;24.80;61.80;;;;;;5043949;28;20049;-60
2022/07/21 08:01:41;;;;;;;6.68;4.45;;;24.80;62.00;;;;;;5050000;28;20036;-58
2022/07/21 08:04:07;;;;;;;6.65;5.53;;;24.90;62.30;;;;;;5029676;28;20057;-58
2022/07/21 08:06:33;;;;;;;7.40;5.13;;;25.00;62.80;;;;;;5034956;28;20080;-59
2022/07/21 08:08:59;;;;;;;8.10;5.20;;;25.10;63.50;;;;;;5059555;28;20056;-60
2022/07/21 08:11:25;;;;;;;9.20;5.00;;;25.30;63.30;;;;;;5029450;28;20054;-59
2022/07/21 08:13:51;;;;;;;8.18;5.03;;;25.50;63.00;;;;;;5038748;28;20045;-59
2022/07/21 08:16:17;;;;;;;7.40;4.78;;;25.70;62.00;;;;;;5044068;28;20029;-59
2022/07/21 08:18:43;;;;;;;7.00;4.72;;;25.90;60.30;;;;;;5043222;28;20044;-58
2022/07/21 08:21:09;;;;;;;6.72;4.80;;;26.10;60.00;;;;;;5034903;28;20033;-59
2022/07/21 08:23:35;;;;;;;8.05;5.00;;;26.20;59.40;;;;;;5056574;28;20021;-58
2022/07/21 08:26:01;;;;;;;9.07;4.88;;;26.20;58.00;;;;;;5038339;28;20029;-60
2022/07/21 08:28:27;;;;;;;7.55;4.57;;;26.20;57.30;;;;;;5051660;28;20136;-59
2022/07/21 08:30:53;;;;;;;8.32;4.53;;;26.10;56.90;;;;;;5045426;28;20033;-60
2022/07/21 08:33:18;;;;;;;7.30;4.43;;;26.10;57.50;;;;;;5041178;28;20025;-59
2022/07/21 08:35:44;;;;;;;8.75;4.65;;;26.10;57.70;;;;;;5032196;28;20030;-60
2022/07/21 08:38:11;;;;;;;5.78;4.53;;;26.20;57.60;;;;;;5036885;28;20075;-59
2022/07/21 08:40:43;;;;;;;6.75;4.78;;;26.30;56.70;;;;;;5050067;28;20121;-59
2022/07/21 08:43:10;;;;;;;4.82;4.15;;;26.20;55.80;;;;;;5035521;28;20398;-59
2022/07/21 08:45:37;;;;;;;8.52;4.22;;;26.30;56.10;;;;;;5035528;28;20022;-59
2022/07/21 08:48:04;;;;;;;8.02;4.38;;;26.30;56.30;;;;;;5051926;28;20034;-59
2022/07/21 08:50:32;;;;;;;8.68;5.05;;;26.30;56.30;;;;;;5044969;28;20473;-60
2022/07/21 08:52:58;;;;;;;8.23;5.00;;;26.40;56.20;;;;;;5057362;28;20021;-60
2022/07/21 08:55:24;;;;;;;6.28;4.45;;;26.50;56.10;;;;;;5026602;28;20036;-59
2022/07/21 08:57:50;;;;;;;6.75;4.57;;;26.50;56.30;;;;;;5039714;28;20068;-59
2022/07/21 09:00:16;;;;;;;5.55;4.00;;;26.70;56.00;;;;;;5030343;28;20029;-59
2022/07/21 09:02:42;;;;;;;6.57;4.15;;;26.80;55.60;;;;;;5046704;28;20041;-59
2022/07/21 09:05:09;;;;;;;8.57;4.53;;;26.80;55.40;;;;;;5034193;28;20033;-59
2022/07/21 09:07:57;;;;;;;5.47;3.25;;;26.80;55.00;;;;;;5045867;28;20030;-58
2022/07/21 09:10:25;;;;;;;5.72;3.67;;;26.90;53.30;;;;;;5029111;28;20461;-60
2022/07/21 09:12:54;;;;;;;5.22;3.50;;;26.90;52.90;;;;;;5046645;28;20051;-58
2022/07/21 09:15:22;;;;;;;4.63;3.60;;;26.80;52.50;;;;;;5063501;28;20037;-58
2022/07/21 09:18:23;;;;;;;7.20;3.75;;;26.80;52.50;;;;;;5045464;28;20037;-60
2022/07/21 09:20:52;;;;;;;5.88;3.40;;;26.80;53.10;;;;;;4992417;28;20038;-58
2022/07/21 09:23:20;;;;;;;5.30;3.58;;;26.80;53.10;;;;;;5010176;28;20049;-58
2022/07/21 09:25:48;;;;;;;5.70;3.75;;;26.90;53.20;;;;;;5006740;28;20062;-59
2022/07/21 09:28:25;;;;;;;4.82;3.45;;;27.00;53.20;;;;;;5016635;28;20058;-60
2022/07/21 09:31:01;;;;;;;7.45;3.75;;;27.10;53.50;;;;;;5006101;28;20077;-60
2022/07/21 09:33:37;;;;;;;5.28;3.35;;;27.20;51.80;;;;;;4993948;28;20043;-60
2022/07/21 09:36:13;;;;;;;7.32;3.45;;;27.30;52.00;;;;;;5006172;28;20164;-59
2022/07/21 09:38:44;;;;;;;10.13;3.60;;;27.40;51.90;;;;;;5012608;28;20038;-58
2022/07/21 09:41:16;;;;;;;6.55;3.63;;;27.50;52.20;;;;;;4997124;28;20050;-58
2022/07/21 09:43:45;;;;;;;5.53;3.67;;;27.70;52.20;;;;;;4997052;28;20060;-59
2022/07/21 09:46:31;;;;;;;6.32;3.50;;;27.90;52.00;;;;;;4998014;28;20029;-58
2022/07/21 09:49:00;;;;;;;4.75;3.30;;;28.00;50.50;;;;;;5013804;28;20034;-59
2022/07/21 09:51:37;;;;;;;5.03;3.90;;;28.20;50.40;;;;;;5004383;28;20038;-60
2022/07/21 09:54:11;;;;;;;6.10;3.28;;;28.20;49.20;;;;;;5006419;28;20038;-60
2022/07/21 09:56:37;;;;;;;;;;;28.30;49.90;;;;;;5040561;28;20061;-58
2022/07/21 09:59:05;;;;;;;3.50;2.65;;;28.40;51.00;;;;;;5053392;28;19917;-58
2022/07/21 10:01:32;;;;;;;5.90;3.30;;;28.60;50.10;;;;;;5046643;28;20029;-60
2022/07/21 10:03:59;;;;;;;3.83;2.88;;;28.50;48.90;;;;;;5037637;28;20026;-58
2022/07/21 10:06:29;;;;;;;4.03;2.67;;;28.50;49.00;;;;;;5066993;28;20029;-59
2022/07/21 10:08:57;;;;;;;7.30;3.38;;;28.50;48.70;;;;;;5045186;28;20032;-59
2022/07/21 10:11:24;;;;;;;4.13;2.88;;;28.40;48.70;;;;;;5035992;28;20034;-59
2022/07/21 10:13:50;;;;;;;4.15;3.00;;;28.40;48.70;;;;;;5043010;28;20034;-59
2022/07/21 10:16:16;;;;;;;5.25;2.80;;;28.40;48.60;;;;;;5057931;28;20093;-59
2022/07/21 10:18:59;;;;;;;5.25;3.33;;;28.60;48.30;;;;;;5054035;28;20056;-59
2022/07/21 10:21:51;;;;;;;5.35;2.90;;;28.70;47.10;;;;;;5028010;28;20435;-59
2022/07/21 10:24:17;;;;;;;7.80;2.80;;;28.70;47.10;;;;;;5033656;28;20021;-60
2022/07/21 10:27:02;;;;;;;5.63;3.30;;;28.80;47.80;;;;;;5034603;28;20032;-59
2022/07/21 10:30:03;;;;;;;4.13;2.83;;;28.80;46.90;;;;;;5041996;28;20042;-61
2022/07/21 10:32:38;;;;;;;4.80;3.17;;;28.90;47.70;;;;;;5024769;28;20049;-59
2022/07/21 10:35:31;;;;;;;5.10;3.20;;;28.80;46.90;;;;;;5020187;28;20035;-58
2022/07/21 10:38:00;;;;;;;5.47;3.10;;;28.70;45.80;;;;;;5023892;28;20041;-59
2022/07/21 10:40:26;;;;;;;5.65;3.28;;;28.50;46.80;;;;;;5022981;28;20049;-59
2022/07/21 10:43:03;;;;;;;7.32;3.60;;;28.50;47.70;;;;;;5028799;28;20057;-58
2022/07/21 10:45:38;;;;;;;5.25;2.92;;;28.40;46.90;;;;;;5023493;28;20133;-59
2022/07/21 10:48:06;;;;;;;6.28;3.17;;;28.30;46.60;;;;;;5030511;28;20142;-58
2022/07/21 10:50:40;;;;;;;6.75;3.40;;;28.20;46.80;;;;;;5026108;28;20046;-60
2022/07/21 10:53:16;;;;;;;8.10;2.97;;;28.20;46.50;;;;;;5005575;28;20038;-58
2022/07/21 10:55:53;;;;;;;6.32;2.72;;;28.10;46.30;;;;;;5023253;28;20121;-59
2022/07/21 10:58:32;;;;;;;5.05;2.97;;;28.20;46.20;;;;;;5025874;28;20184;-59
2022/07/21 11:00:59;;;;;;;4.75;2.58;;;28.20;45.70;;;;;;5044874;28;20037;-59
2022/07/21 11:03:31;;;;;;;5.20;2.65;;;28.20;46.60;;;;;;5025260;28;20053;-59
2022/07/21 11:06:16;;;;;;;3.95;2.80;;;28.20;45.50;;;;;;5018963;28;20030;-58
2022/07/21 11:08:44;;;;;;;4.10;2.97;;;28.20;44.70;;;;;;5021166;28;20042;-60
2022/07/21 11:11:14;;;;;;;4.25;2.95;;;28.10;46.00;;;;;;5058520;28;20030;-59
2022/07/21 11:14:07;;;;;;;3.65;2.45;;;28.10;46.10;;;;;;5057323;28;20092;-58
2022/07/21 11:16:55;;;;;;;5.00;2.65;;;28.10;45.70;;;;;;5036744;28;20036;-59
2022/07/21 11:19:37;;;;;;;4.88;2.42;;;28.10;45.30;;;;;;5042638;28;20029;-59
2022/07/21 11:22:12;;;;;;;3.55;2.80;;;28.20;46.40;;;;;;5026932;28;20026;-59
2022/07/21 11:24:40;;;;;;;5.25;2.90;;;28.40;45.40;;;;;;5058250;28;20049;-60
2022/07/21 11:27:16;;;;;;;3.53;2.70;;;28.50;46.40;;;;;;5046483;28;20025;-59
2022/07/21 11:29:43;;;;;;;4.63;2.90;;;28.60;45.80;;;;;;5033628;28;20037;-60
2022/07/21 11:32:10;;;;;;;4.53;3.03;;;28.70;47.10;;;;;;5049348;28;20030;-59
2022/07/21 11:34:38;;;;;;;3.65;2.47;;;28.80;45.60;;;;;;5042697;28;20025;-58
2022/07/21 11:37:04;;;;;;;3.15;2.40;;;29.00;45.60;;;;;;5047555;28;20025;-59
2022/07/21 11:39:30;;;;;;;4.10;2.78;;;29.30;45.60;;;;;;5040917;28;20073;-59
2022/07/21 11:42:05;;;;;;;4.10;2.60;;;29.50;45.30;;;;;;5040596;28;20037;-59
2022/07/21 11:44:32;;;;;;;5.47;2.67;;;29.70;45.40;;;;;;5044519;28;20041;-60
2022/07/21 11:47:01;;;;;;;5.95;2.70;;;29.90;45.10;;;;;;5053505;28;20026;-60
2022/07/21 11:49:27;;;;;;;4.93;2.75;;;30.20;44.20;;;;;;5035168;28;20053;-58
2022/07/21 11:51:59;;;;;;;4.57;2.72;;;30.30;44.30;;;;;;5046180;28;20068;-59
2022/07/21 11:54:24;;;;;;;3.58;2.60;;;30.50;44.20;;;;;;5040821;28;20028;-59
2022/07/21 11:56:51;;;;;;;2.72;2.33;;;30.60;42.60;;;;;;5033707;28;20034;-60
2022/07/21 11:59:17;;;;;;;3.13;2.35;;;30.70;42.00;;;;;;5032177;28;20041;-58
2022/07/21 12:01:58;;;;;;;6.07;2.65;;;30.90;41.50;;;;;;5034994;28;20057;-58
2022/07/21 12:04:39;;;;;;;3.65;2.58;;;30.90;40.30;;;;;;5039293;28;20025;-58
2022/07/21 12:07:36;;;;;;;3.78;2.33;;;31.00;40.00;;;;;;5048977;28;20036;-59
2022/07/21 12:10:07;;;;;;;3.17;2.42;;;31.00;40.50;;;;;;5037214;28;20064;-60
2022/07/21 12:12:35;;;;;;;3.80;2.50;;;31.00;39.80;;;;;;5033635;28;20045;-59
2022/07/21 12:15:17;;;;;;;5.55;2.50;;;30.90;39.40;;;;;;5046461;28;20052;-60
2022/07/21 12:17:53;;;;;;;3.35;2.35;;;30.80;38.70;;;;;;5041215;28;20025;-59
2022/07/21 12:20:33;;;;;;;5.57;2.88;;;30.80;39.20;;;;;;5039136;28;20453;-59
2022/07/21 12:23:17;;;;;;;4.45;2.78;;;30.80;38.80;;;;;;5042149;28;20029;-59
2022/07/21 12:25:43;;;;;;;;;;;30.80;38.80;;;;;;5056708;28;20029;-59
2022/07/21 12:28:09;;;;;;;3.42;2.55;;;30.80;39.30;;;;;;5045936;28;19923;-57
2022/07/21 12:30:39;;;;;;;6.25;2.35;;;30.80;39.60;;;;;;5064077;28;20033;-61
2022/07/21 12:33:13;;;;;;;5.55;2.33;;;30.80;39.50;;;;;;5035749;28;20021;-59
2022/07/21 12:35:46;;;;;;;4.38;2.47;;;30.90;39.50;;;;;;5041935;28;20089;-59
2022/07/21 12:38:13;;;;;;;3.70;2.70;;;31.00;39.20;;;;;;5039411;28;20053;-59
2022/07/21 12:40:41;;;;;;;4.28;2.72;;;31.10;39.50;;;;;;5040702;28;20044;-59
2022/07/21 12:43:12;;;;;;;3.65;2.58;;;31.20;39.20;;;;;;5032770;28;20049;-59
2022/07/21 12:45:57;;;;;;;5.65;2.70;;;31.30;38.80;;;;;;5051199;28;20060;-60
2022/07/21 12:48:28;;;;;;;4.15;2.67;;;31.50;37.70;;;;;;5033994;28;20029;-59
2022/07/21 12:51:20;;;;;;;4.95;2.55;;;31.60;37.30;;;;;;5047370;28;20057;-59
2022/07/21 12:53:53;;;;;;;3.63;2.55;;;31.60;36.40;;;;;;5048354;28;20025;-59
2022/07/21 12:56:21;;;;;;;3.88;2.40;;;31.60;36.80;;;;;;5065088;28;20526;-58